• Join FlightAware (Why Join?)
  • Login
  • US Flag 
06:35AM EST


 

Airport Tracker/Info


-or-


 

Live Flight TrackerFlight Track Log ✈ SWA525 ✈ 07-May-2013 ✈ KMSY - KMCO

Flight Track Log - Related Links

Times and Time Zones

All times are in EDT time to prevent confusion due to time zone crossing. See the SWA525 flight status page for this flight to view local times or setup timezone preferences in your user account.

Time Position Orientation Groundspeed Altitude Reporting Facility
EDT Latitude Longitude Course Direction KTS MPH feet Rate Location/Type
05:53PM 30.0564 -90.2278 16° North 196 226 2,600  Level Houston Center
05:54PM 30.1131 -90.1944 27° Northeast 233 268 5,500 2,460 Climbing Houston Center
05:55PM 30.0681 -90.1386 133° Southeast 273 314 7,700 2,460 Climbing Houston Center
05:56PM 29.9733 -90.0964 159° South 301 346 10,600 2,640 Climbing Houston Center
05:57PM 29.8831 -90.0556 159° South 332 382 13,200 2,280 Climbing Houston Center
05:58PM 29.8172 -89.9686 131° Southeast 359 413 15,400 2,100 Climbing Houston Center
05:59PM 29.7492 -89.8736 130° Southeast 375 432 17,600 1,800 Climbing Houston Center
06:00PM 29.6792 -89.7778 130° Southeast 392 451 19,200 1,740 Climbing Houston Center
06:01PM 29.5872 -89.6533 130° Southeast 425 489 21,300 1,980 Climbing Houston Center
06:02PM 29.5092 -89.5461 130° Southeast 433 498 23,400 1,860 Climbing Houston Center
06:03PM 29.4311 -89.4383 130° Southeast 439 505 25,200 1,500 Climbing Houston Center
06:04PM 29.3500 -89.3283 130° Southeast 450 518 26,500 1,260 Climbing Houston Center
06:05PM 29.2683 -89.2181 130° Southeast 454 522 27,900 1,200 Climbing Houston Center
06:06PM 29.1672 -89.0803 130° Southeast 469 540 29,000 1,080 Climbing Houston Center
06:07PM 29.0808 -88.9644 130° Southeast 478 550 30,200 1,260 Climbing Houston Center
06:08PM 28.9953 -88.8489 130° Southeast 476 548 31,700 1,260 Climbing Houston Center
06:09PM 28.9092 -88.7364 131° Southeast 472 543 32,900 1,020 Climbing Houston Center
06:10PM 28.8569 -88.6014 114° Southeast 471 542 33,900 780 Climbing Houston Center
06:11PM 28.8175 -88.4581 107° East 475 547 34,600 480 Climbing Houston Center
06:12PM 28.7692 -88.2878 108° East 473 544 35,000 180 Climbing Houston Center
06:13PM 28.7283 -88.1444 108° East 476 548 35,000  Level Houston Center
06:14PM 28.6919 -88.0153 108° East 471 542 35,000  Level Houston Center
06:15PM 28.6450 -87.8442 107° East 473 544 35,000  Level Houston Center
06:16PM 28.6042 -87.7025 108° East 472 543 35,000  Level Houston Center
06:17PM 28.5642 -87.5617 108° East 471 542 35,000  Level Houston Center
06:18PM 28.5472 -87.4981 107° East 458 527 35,000  Level Jacksonville Center
06:19PM 28.5003 -87.3519 110° East 467 537 35,000  Level Jacksonville Center
06:20PM 28.4653 -87.2158 106° East 467 537 35,000  Level Jacksonville Center
06:21PM 28.4239 -87.0772 109° East 465 535 35,000  Level Jacksonville Center
06:22PM 28.3906 -86.9461 106° East 458 527 35,000  Level Jacksonville Center
06:23PM 28.3394 -86.7789 109° East 474 545 35,000  Level Jacksonville Center
06:24PM 28.2978 -86.6383 109° East 474 545 35,000  Level Jacksonville Center
06:25PM 28.2600 -86.5050 108° East 463 533 35,000  Level Jacksonville Center
06:26PM 28.2158 -86.3597 109° East 472 543 35,000  Level Jacksonville Center
06:27PM 28.1739 -86.2169 108° East 467 537 35,000  Level Jacksonville Center
06:28PM 28.1314 -86.0767 109° East 471 542 35,000  Level Jacksonville Center
06:29PM 28.0889 -85.9319 108° East 465 535 35,000  Level Jacksonville Center
06:30PM 28.0464 -85.7894 109° East 472 543 35,000  Level Jacksonville Center
06:31PM 27.9994 -85.6450 110° East 479 551 35,000  Level Jacksonville Center
06:32PM 27.9564 -85.5050 109° East 490 564 35,000  Level Jacksonville Center
06:34PM 27.8761 -85.2153 107° East 502 578 35,000  Level Miami Center
06:35PM 27.8536 -85.0589 99° East 496 571 35,000  Level Miami Center
06:36PM 27.8361 -84.9286 99° East 491 565 35,000  Level Miami Center
06:37PM 27.8239 -84.7731 95° East 491 565 35,000  Level Miami Center
06:38PM 27.8281 -84.6211 88° East 491 565 35,000  Level Miami Center
06:39PM 27.8217 -84.4681 93° East 491 565 35,000  Level Miami Center
06:40PM 27.8253 -84.3183 88° East 484 557 35,000  Level Miami Center
06:41PM 27.8311 -84.1639 88° East 484 557 35,000  Level Miami Center
06:42PM 27.8261 -84.0136 92° East 484 557 35,000  Level Miami Center
06:43PM 27.8211 -83.8608 92° East 479 551 35,000  Level Miami Center
06:44PM 27.8306 -83.7114 86° East 479 551 35,000 -180 Level Miami Center
06:45PM 27.8275 -83.5564 91° East 479 551 34,700 -600 Descending Miami Center
06:46PM 27.8281 -83.4039 90° East 479 551 33,800 -960 Descending Miami Center
06:47PM 27.8269 -83.2467 90° East 484 557 32,800 -1,020 Descending Miami Center
06:48PM 27.8275 -83.0919 90° East 490 564 31,800 -1,380 Descending Miami Center
06:49PM 27.8278 -82.9347 90° East 495 570 30,100 -2,040 Descending Miami Center
06:50PM 27.8203 -82.7678 93° East 500 575 27,800 -2,280 Descending Miami Center
06:51PM 27.8239 -82.6247 88° East 474 545 25,600 -2,160 Descending Miami Center
06:52PM 27.8314 -82.4892 86° East 448 516 23,500 -2,100 Descending Miami Center
06:53PM 27.8717 -82.3644 70° East 431 496 21,400 -2,100 Descending Miami Center
06:54PM 27.9117 -82.2442 69° East 410 472 19,400 -1,980 Descending Miami Center
06:56PM 28.0000 -82.0000 68° East 371 427 15,100 -1,920 Descending Orlando TRACON
06:57PM 28.0500 -81.8833 64° Northeast 361 415 13,100 -1,020 Descending Orlando TRACON
06:58PM 28.1000 -81.7833 60° Northeast 356 410 13,000 -540 Descending Orlando TRACON
06:59PM 28.1500 -81.7000 56° Northeast 353 406 12,100 -1,080 Descending Orlando TRACON
07:00PM 28.2000 -81.6167 56° Northeast 320 368 10,900 -1,200 Descending Orlando TRACON
07:01PM 28.2500 -81.5167 60° Northeast 306 352 9,700 -960 Descending Orlando TRACON
07:02PM 28.3000 -81.4500 50° Northeast 303 349 9,000 -540 Descending Orlando TRACON
07:03PM 28.3833 -81.4167 19° North 277 319 8,700 -1,080 Descending Orlando TRACON
07:04PM 28.4667 -81.4167 360° North 289 333 6,900 -1,500 Descending Orlando TRACON
07:05PM 28.5500 -81.4167 360° North 261 300 5,600 -900 Descending Orlando TRACON
07:06PM 28.6000 -81.4167 360° North 223 257 5,100 -900 Descending Orlando TRACON
07:07PM 28.6500 -81.3833 30° Northeast 214 246 3,800 -1,260 Descending Orlando TRACON
07:08PM 28.6000 -81.3667 164° South 203 234 2,500 -720 Descending Orlando TRACON
07:09PM 28.5500 -81.3333 150° Southeast 173 199 2,500 -600 Level Orlando TRACON
07:10PM 28.5000 -81.3167 164° South 144 166 1,300 -960 Descending Orlando TRACON
07:11PM 28.4667 -81.3167 180° South 151 174 500 -840 Descending Orlando TRACON